Accueil
METAR-TAF:

METAR-TAF

Aéroports :

Aéroport de Bournemouth

Bornemouth, Angleterre

latitude: 50-47N, longitude: 001-50W, altitude: 11 m

Observation

Le bulletin a été fait il y a 3 heures et 34 minutes, à 23:50 UTC
Vent 10 kt de ouest/nord-ouest
Température 9°C
Humidité 81%
Pression 1025 hPa
Visibilité 10 km ou plus
Nuages épars à une hauteur de 4500 ft

METAR: EGHH 092350Z 29010KT 9999 SCT045 09/06 Q1025

Heure: 03:24 (03:24 UTC)

Prévision

Le bulletin a été fait il y a 4 heures et 23 minutes, à 23:01 UTC
Prévision valable du 10 à 00 UTC au 10 à 09 UTC
Vent 9 kt de ouest/nord-ouest
Visibilité 10 km ou plus
Nuages épars à une hauteur de 2200 ft

TAF: EGHH 092301Z 1000/1009 29009KT 9999 SCT022

Observations et prévisions météorologiques de plus de 4000 aéroports (messages METAR et TAF).

Les stations disponibles sont représentées par des disques jaunes et rouges sur la carte.

Passer la souris dessus pour voir le nom de la station.

Cliquer dessus pour voir les observations et prévisions météorologiques.

Pour changer de carte: cliquez sur les boutons verts avec une croix noire pour zoomer, sur le bouton vert avec un tiret pour effectuer un zoom arrière, ou sur les flèches vertes pour les cartes adjacentes.


METAR-TAF: